Time;durP1;ratioP1;P1;durP2;ratioP2;P2;SDS_P1;SDS_P2;PMS_P1;PMS_P2;Temp;Humidity;BMP_temperature;BMP_pressure;BME280_temperature;BME280_humidity;BME280_pressure;Samples;Min_cycle;Max_cycle;Signal;HPM_P1;HPM_P2
2023/06/21 00:01:06;;;;;;;13.75;7.90;;;19.90;99.90;;;;;;4183295;28;20057;-86
2023/06/21 00:03:07;;;;;;;11.82;8.40;;;19.90;99.90;;;;;;4218563;28;20560;-86
2023/06/21 00:05:09;;;;;;;13.23;7.88;;;19.90;99.90;;;;;;4218148;28;20070;-86
2023/06/21 00:07:09;;;;;;;12.32;8.10;;;19.90;99.90;;;;;;4184299;28;20064;-86
2023/06/21 00:09:33;;;;;;;12.82;7.80;;;19.90;99.90;;;;;;4201020;28;20052;-86
2023/06/21 00:11:34;;;;;;;12.73;9.10;;;19.90;99.90;;;;;;4222802;28;20094;-86
2023/06/21 00:13:34;;;;;;;11.57;7.97;;;19.80;99.90;;;;;;4185543;28;20044;-86
2023/06/21 00:15:36;;;;;;;12.50;8.05;;;19.80;99.90;;;;;;4183122;28;20049;-86
2023/06/21 00:17:37;;;;;;;15.13;9.35;;;19.80;99.90;;;;;;4201815;28;20083;-86
2023/06/21 00:19:39;;;;;;;13.60;8.90;;;19.80;99.90;;;;;;4200646;28;20044;-86
2023/06/21 00:21:40;;;;;;;14.93;9.25;;;19.80;99.90;;;;;;4201400;28;20044;-86
2023/06/21 00:23:43;;;;;;;12.15;8.77;;;19.80;99.90;;;;;;4201844;28;20489;-86
2023/06/21 00:25:44;;;;;;;13.07;8.77;;;19.80;99.90;;;;;;4201126;28;20079;-86
2023/06/21 00:27:46;;;;;;;12.45;8.80;;;19.70;99.90;;;;;;4201440;28;20036;-86
2023/06/21 00:29:46;;;;;;;16.48;9.60;;;19.70;99.90;;;;;;4182405;28;20079;-86
2023/06/21 00:31:47;;;;;;;12.43;8.95;;;19.70;99.90;;;;;;4201763;28;20036;-86
2023/06/21 00:33:49;;;;;;;18.33;9.45;;;19.70;99.90;;;;;;4201390;28;20044;-86
2023/06/21 00:35:50;;;;;;;16.25;10.10;;;19.70;99.90;;;;;;4201751;28;20119;-86
2023/06/21 00:37:51;;;;;;;14.57;9.45;;;19.70;99.90;;;;;;4200870;28;20039;-86
2023/06/21 00:39:51;;;;;;;15.27;10.40;;;19.70;99.90;;;;;;4200702;28;20075;-86
2023/06/21 00:41:55;;;;;;;18.10;10.52;;;19.70;99.90;;;;;;4201678;28;20412;-85
2023/06/21 00:43:56;;;;;;;12.68;9.55;;;19.70;99.90;;;;;;4200334;28;20119;-86
2023/06/21 00:45:57;;;;;;;17.27;10.38;;;19.70;99.90;;;;;;4202362;28;20053;-86
2023/06/21 00:47:58;;;;;;;18.88;10.48;;;19.70;99.90;;;;;;4183130;28;20590;-85
2023/06/21 00:49:58;;;;;;;15.32;10.65;;;19.60;99.90;;;;;;4168179;28;20113;-86
2023/06/21 00:51:59;;;;;;;17.73;10.20;;;19.70;99.90;;;;;;4200468;28;20040;-85
2023/06/21 00:54:00;;;;;;;16.70;10.73;;;19.60;99.90;;;;;;4201776;28;20044;-86
2023/06/21 00:56:01;;;;;;;18.42;10.90;;;19.60;99.90;;;;;;4184128;28;20053;-86
2023/06/21 00:58:03;;;;;;;19.20;11.70;;;19.60;99.90;;;;;;4202662;28;20051;-86
2023/06/21 01:00:05;;;;;;;14.52;10.63;;;19.60;99.90;;;;;;4183789;28;20528;-86
2023/06/21 01:02:06;;;;;;;18.55;10.85;;;19.60;99.90;;;;;;4205304;28;20119;-85
2023/06/21 01:04:09;;;;;;;19.48;11.70;;;19.60;99.90;;;;;;4201347;28;20059;-85
2023/06/21 01:06:35;;;;;;;16.73;10.75;;;19.60;99.90;;;;;;4218254;28;20043;-85
2023/06/21 01:08:52;;;;;;;16.25;10.85;;;19.60;99.90;;;;;;4217639;28;20043;-86
2023/06/21 01:11:19;;;;;;;20.25;12.02;;;19.60;99.90;;;;;;4218308;28;20446;-85
2023/06/21 01:13:38;;;;;;;15.18;11.25;;;19.60;99.90;;;;;;4200486;28;20062;-85
2023/06/21 01:16:05;;;;;;;16.95;11.90;;;19.60;99.90;;;;;;4200788;28;20047;-84
2023/06/21 01:18:06;;;;;;;18.30;11.98;;;19.60;99.90;;;;;;4211189;28;20412;-87
2023/06/21 01:20:18;;;;;;;20.70;11.88;;;19.60;99.90;;;;;;4217670;28;20104;-84
2023/06/21 01:22:28;;;;;;;19.23;12.63;;;19.50;99.90;;;;;;4199259;28;20557;-86
2023/06/21 01:24:47;;;;;;;22.58;12.73;;;19.50;99.90;;;;;;4217388;28;20048;-86
2023/06/21 01:27:16;;;;;;;17.75;12.18;;;19.50;99.90;;;;;;4198831;28;20044;-85
2023/06/21 01:29:23;;;;;;;18.83;12.35;;;19.50;99.90;;;;;;4198197;28;20045;-84
2023/06/21 01:31:25;;;;;;;20.27;13.23;;;19.50;99.90;;;;;;4198029;28;20074;-84
2023/06/21 01:33:27;;;;;;;19.80;13.50;;;19.40;99.90;;;;;;4207737;28;20062;-83
2023/06/21 01:35:31;;;;;;;18.98;13.18;;;19.50;99.90;;;;;;4187661;28;20052;-84
2023/06/21 01:37:42;;;;;;;20.38;13.60;;;19.40;99.90;;;;;;4171587;28;20041;-84
2023/06/21 01:39:43;;;;;;;22.15;13.73;;;19.40;99.90;;;;;;4168068;28;20045;-84
2023/06/21 01:41:44;;;;;;;20.17;14.10;;;19.40;99.90;;;;;;4200876;28;20037;-84
2023/06/21 01:43:44;;;;;;;19.95;14.10;;;19.40;99.90;;;;;;4199910;28;20047;-84
2023/06/21 01:45:46;;;;;;;24.35;15.32;;;19.40;99.90;;;;;;4200235;28;20496;-84
2023/06/21 01:47:46;;;;;;;25.42;15.30;;;19.40;99.90;;;;;;4182485;28;20060;-84
2023/06/21 01:49:48;;;;;;;23.08;14.75;;;19.30;99.90;;;;;;4182012;28;20045;-85
2023/06/21 01:51:50;;;;;;;23.38;14.45;;;19.30;99.90;;;;;;4199430;28;20044;-85
2023/06/21 01:53:52;;;;;;;21.05;13.82;;;19.40;99.90;;;;;;4199767;28;20044;-85
2023/06/21 01:55:56;;;;;;;23.27;14.10;;;19.30;99.90;;;;;;4166476;28;20045;-85
2023/06/21 01:57:57;;;;;;;21.00;13.98;;;19.30;99.90;;;;;;4182333;28;20049;-85
2023/06/21 01:59:59;;;;;;;20.33;14.30;;;19.30;99.90;;;;;;4200014;28;20049;-85
2023/06/21 02:02:03;;;;;;;21.83;14.23;;;19.30;99.90;;;;;;4200794;28;20041;-85
2023/06/21 02:04:07;;;;;;;23.20;14.60;;;19.30;99.90;;;;;;4201110;28;20086;-85
2023/06/21 02:06:11;;;;;;;25.58;14.48;;;19.30;99.90;;;;;;4183477;28;20131;-85
2023/06/21 02:08:16;;;;;;;30.33;14.82;;;19.30;99.90;;;;;;4182731;28;20059;-85
2023/06/21 02:10:19;;;;;;;23.45;14.13;;;19.30;99.90;;;;;;4200071;28;20054;-85
2023/06/21 02:12:20;;;;;;;28.05;15.65;;;19.30;99.90;;;;;;4182858;28;20049;-85
2023/06/21 02:14:22;;;;;;;23.85;14.73;;;19.30;99.90;;;;;;4182511;28;20049;-85
2023/06/21 02:16:29;;;;;;;24.98;14.82;;;19.30;99.90;;;;;;4200596;28;20054;-85
2023/06/21 02:18:29;;;;;;;22.67;14.88;;;19.30;99.90;;;;;;4165529;28;20152;-85
2023/06/21 02:20:32;;;;;;;29.70;14.93;;;19.30;99.90;;;;;;4181945;28;20045;-85
2023/06/21 02:22:33;;;;;;;27.23;15.95;;;19.30;99.90;;;;;;4182092;28;20216;-85
2023/06/21 02:25:26;;;;;;;24.85;14.85;;;19.30;99.90;;;;;;4197483;28;20470;-85
2023/06/21 02:30:52;;;;;;;23.63;14.35;;;19.30;99.90;;;;;;4208366;28;20052;-85
2023/06/21 02:32:56;;;;;;;28.15;16.10;;;19.20;99.90;;;;;;4209071;28;20054;-85
2023/06/21 02:35:12;;;;;;;22.13;14.68;;;19.20;99.90;;;;;;4207155;28;20055;-85
2023/06/21 02:37:20;;;;;;;25.02;15.65;;;19.30;99.90;;;;;;4205104;28;20082;-85
2023/06/21 02:39:27;;;;;;;28.02;16.52;;;19.30;99.90;;;;;;4207870;28;20105;-85
2023/06/21 02:41:28;;;;;;;27.98;17.00;;;19.30;99.90;;;;;;4209021;28;20056;-85
2023/06/21 02:43:29;;;;;;;29.75;16.67;;;19.20;99.90;;;;;;4209130;28;20044;-85
2023/06/21 02:45:36;;;;;;;25.60;16.33;;;19.20;99.90;;;;;;4217897;28;20047;-84
2023/06/21 02:47:37;;;;;;;29.85;17.88;;;19.20;99.90;;;;;;4216847;28;20059;-84
2023/06/21 02:49:38;;;;;;;36.00;18.55;;;19.20;99.90;;;;;;4217280;28;20055;-85
2023/06/21 02:51:42;;;;;;;29.33;17.88;;;19.20;99.90;;;;;;4215807;28;20111;-84
2023/06/21 02:53:43;;;;;;;33.90;17.95;;;19.10;99.90;;;;;;4215819;28;20044;-84
2023/06/21 02:55:46;;;;;;;27.77;19.00;;;19.10;99.90;;;;;;4216967;28;20079;-84
2023/06/21 02:57:50;;;;;;;31.42;18.83;;;19.10;99.90;;;;;;4201414;28;20060;-85
2023/06/21 02:59:52;;;;;;;29.27;18.15;;;19.10;99.90;;;;;;4200788;28;20041;-85
2023/06/21 03:01:57;;;;;;;34.38;18.50;;;19.10;99.90;;;;;;4196674;28;20112;-85
2023/06/21 03:03:58;;;;;;;28.73;17.90;;;19.00;99.90;;;;;;4194934;28;20111;-85
2023/06/21 03:05:59;;;;;;;27.60;17.42;;;19.00;99.90;;;;;;4198422;28;20057;-85
2023/06/21 03:08:00;;;;;;;32.83;18.35;;;19.00;99.90;;;;;;4195762;28;20072;-84
2023/06/21 03:10:02;;;;;;;35.08;19.48;;;19.00;99.90;;;;;;4192795;28;20478;-85
2023/06/21 03:12:08;;;;;;;31.15;17.75;;;18.90;99.90;;;;;;4188179;28;20507;-84
2023/06/21 03:14:09;;;;;;;29.83;17.63;;;18.90;99.90;;;;;;4187656;28;20144;-84
2023/06/21 03:16:09;;;;;;;33.88;19.23;;;18.90;99.90;;;;;;4169236;28;20045;-84
2023/06/21 03:18:12;;;;;;;28.13;17.05;;;18.90;99.90;;;;;;4168411;28;20046;-84
2023/06/21 03:20:13;;;;;;;31.85;18.83;;;18.90;99.90;;;;;;4185823;28;20113;-84
2023/06/21 03:22:14;;;;;;;32.40;18.52;;;18.90;99.90;;;;;;4185073;28;20049;-84
2023/06/21 03:24:17;;;;;;;32.53;18.20;;;18.90;99.90;;;;;;4185406;28;20120;-84
2023/06/21 03:26:18;;;;;;;31.90;18.58;;;18.90;99.90;;;;;;4185577;28;20484;-85
2023/06/21 03:28:18;;;;;;;33.88;17.77;;;18.90;99.90;;;;;;4187371;28;20165;-85
2023/06/21 03:30:21;;;;;;;32.40;19.60;;;18.90;99.90;;;;;;4185866;28;20044;-84
2023/06/21 03:32:22;;;;;;;33.30;19.38;;;18.80;99.90;;;;;;4186126;28;20064;-84
2023/06/21 03:34:22;;;;;;;37.15;20.77;;;18.90;99.90;;;;;;4168330;28;20049;-84
2023/06/21 03:36:23;;;;;;;37.17;20.58;;;18.90;99.90;;;;;;4184993;28;20044;-85
2023/06/21 03:38:24;;;;;;;36.67;20.23;;;18.90;99.90;;;;;;4184831;28;20543;-84
2023/06/21 03:40:26;;;;;;;35.72;21.02;;;18.80;99.90;;;;;;4167606;28;20108;-85
2023/06/21 03:42:26;;;;;;;33.25;20.17;;;18.80;99.90;;;;;;4185019;28;20049;-85
2023/06/21 03:44:29;;;;;;;36.55;20.45;;;18.80;99.90;;;;;;4184633;28;20094;-85
2023/06/21 03:46:30;;;;;;;35.42;20.05;;;18.80;99.90;;;;;;4169749;28;20038;-84
2023/06/21 03:48:30;;;;;;;36.85;20.63;;;18.80;99.90;;;;;;4185208;28;20049;-86
2023/06/21 03:50:32;;;;;;;33.42;20.77;;;18.80;99.90;;;;;;4186396;28;20092;-85
2023/06/21 03:52:33;;;;;;;34.20;20.25;;;18.80;99.90;;;;;;4167775;28;20125;-85
2023/06/21 03:54:34;;;;;;;34.33;19.63;;;18.80;99.90;;;;;;4185019;28;20045;-85
2023/06/21 03:56:35;;;;;;;34.97;20.25;;;18.70;99.90;;;;;;4184667;28;20045;-85
2023/06/21 03:58:35;;;;;;;34.53;20.75;;;18.70;99.90;;;;;;4185183;28;20728;-85
2023/06/21 04:00:36;;;;;;;33.83;19.75;;;18.80;99.90;;;;;;4185552;28;20049;-86
2023/06/21 04:02:38;;;;;;;32.88;18.77;;;18.70;99.90;;;;;;4167647;28;20107;-86
2023/06/21 04:04:39;;;;;;;31.70;19.40;;;18.80;99.90;;;;;;4186668;28;20049;-85
2023/06/21 04:06:41;;;;;;;34.33;19.15;;;18.70;99.90;;;;;;4167821;28;20053;-85
2023/06/21 04:08:42;;;;;;;35.20;19.30;;;18.80;99.90;;;;;;4185192;28;20055;-85
2023/06/21 04:10:43;;;;;;;35.58;20.45;;;18.70;99.90;;;;;;4168851;28;20544;-85
2023/06/21 04:12:43;;;;;;;33.03;19.52;;;18.70;99.90;;;;;;4184862;28;20045;-85
2023/06/21 04:14:44;;;;;;;34.88;19.98;;;18.70;99.90;;;;;;4185028;28;20401;-84
2023/06/21 04:16:45;;;;;;;37.35;20.25;;;18.70;99.90;;;;;;4184448;28;20045;-85
2023/06/21 04:18:46;;;;;;;34.92;20.25;;;18.70;99.90;;;;;;4201493;28;20123;-84
2023/06/21 04:20:49;;;;;;;34.97;18.58;;;18.70;99.90;;;;;;4200014;28;20040;-85
2023/06/21 04:22:50;;;;;;;33.85;19.45;;;18.70;99.90;;;;;;4183791;28;20131;-85
2023/06/21 04:24:51;;;;;;;37.30;19.65;;;18.70;99.90;;;;;;4184907;28;20047;-85
2023/06/21 04:26:53;;;;;;;34.83;17.50;;;18.70;99.90;;;;;;4217606;28;20051;-85
2023/06/21 04:28:54;;;;;;;34.90;19.52;;;18.70;99.90;;;;;;4202567;28;20078;-85
2023/06/21 04:30:55;;;;;;;37.60;18.55;;;18.70;99.90;;;;;;4201125;28;20033;-85
2023/06/21 04:32:55;;;;;;;36.75;19.23;;;18.70;99.90;;;;;;4184425;28;20080;-85
2023/06/21 04:34:56;;;;;;;35.22;20.65;;;18.70;99.90;;;;;;4201341;28;20087;-86
2023/06/21 04:36:57;;;;;;;35.60;18.52;;;18.70;99.90;;;;;;4195150;28;20037;-86
2023/06/21 04:38:58;;;;;;;31.95;18.15;;;18.70;99.90;;;;;;4183124;28;20045;-86
2023/06/21 04:40:58;;;;;;;40.05;19.27;;;18.70;99.90;;;;;;4167495;28;20878;-85
2023/06/21 04:43:02;;;;;;;34.22;19.02;;;18.80;99.90;;;;;;4184279;28;20053;-86
2023/06/21 04:45:05;;;;;;;37.83;19.38;;;18.80;99.90;;;;;;4184276;28;20049;-85
2023/06/21 04:47:06;;;;;;;36.70;19.00;;;18.80;99.90;;;;;;4167422;28;20460;-87
2023/06/21 04:49:15;;;;;;;27.83;16.60;;;18.80;99.90;;;;;;4183676;28;20485;-83
2023/06/21 04:51:17;;;;;;;36.92;18.50;;;18.90;99.90;;;;;;4168018;28;20049;-84
2023/06/21 04:53:24;;;;;;;32.58;17.05;;;18.90;99.90;;;;;;4167800;28;20121;-85
2023/06/21 04:55:34;;;;;;;33.80;17.38;;;18.90;99.90;;;;;;4174154;28;20049;-86
2023/06/21 04:58:03;;;;;;;34.15;18.27;;;19.00;99.90;;;;;;4191770;28;20074;-92
2023/06/21 05:00:07;;;;;;;30.45;16.20;;;19.00;99.90;;;;;;4186270;28;20062;-90
2023/06/21 05:02:08;;;;;;;30.05;17.25;;;18.90;99.90;;;;;;4200988;28;20040;-91
2023/06/21 05:04:15;;;;;;;29.95;15.75;;;18.90;99.90;;;;;;4202529;28;20039;-90
2023/06/21 05:06:27;;;;;;;31.80;16.35;;;19.50;99.90;;;;;;4201815;28;20123;-90
2023/06/21 05:08:28;;;;;;;26.55;14.82;;;19.00;99.90;;;;;;4203215;28;20044;-90
2023/06/21 05:10:33;;;;;;;29.85;15.75;;;18.20;99.90;;;;;;4203617;28;20083;-92
2023/06/21 05:12:52;;;;;;;26.02;14.60;;;18.90;99.90;;;;;;4185194;28;20533;-91
2023/06/21 05:14:53;;;;;;;28.77;14.23;;;19.00;99.90;;;;;;4201812;28;20052;-91
2023/06/21 05:16:54;;;;;;;27.80;15.30;;;18.90;99.90;;;;;;4191788;28;20421;-91
2023/06/21 05:18:55;;;;;;;26.02;13.82;;;19.00;99.90;;;;;;4184241;28;20060;-91
2023/06/21 05:20:59;;;;;;;27.67;14.70;;;19.00;99.90;;;;;;4184707;28;20049;-91
2023/06/21 05:23:00;;;;;;;26.10;13.90;;;19.00;99.90;;;;;;4185093;28;20052;-91
2023/06/21 05:25:04;;;;;;;26.27;13.65;;;19.00;99.90;;;;;;4187440;28;20080;-90
2023/06/21 05:27:05;;;;;;;31.10;15.32;;;19.00;99.90;;;;;;4169312;28;20049;-92
2023/06/21 05:29:07;;;;;;;26.10;12.63;;;19.10;99.90;;;;;;4185220;28;20080;-91
2023/06/21 05:31:09;;;;;;;23.63;12.85;;;19.10;99.90;;;;;;4188918;28;20440;-90
2023/06/21 05:33:10;;;;;;;26.77;13.98;;;19.10;99.90;;;;;;4200785;28;20080;-91
2023/06/21 05:35:10;;;;;;;30.08;13.93;;;19.10;99.90;;;;;;4201794;28;20075;-87
2023/06/21 05:37:11;;;;;;;24.23;13.30;;;19.20;99.90;;;;;;4199766;28;20051;-88
2023/06/21 05:39:16;;;;;;;22.33;11.52;;;19.20;99.90;;;;;;4202628;28;20040;-89
2023/06/21 05:41:17;;;;;;;24.23;12.32;;;19.20;99.90;;;;;;4202004;28;20396;-88
2023/06/21 05:43:18;;;;;;;27.55;13.23;;;19.30;99.90;;;;;;4183252;28;20124;-89
2023/06/21 05:45:20;;;;;;;23.02;12.05;;;19.30;99.90;;;;;;4202259;28;20044;-89
2023/06/21 05:47:21;;;;;;;21.17;11.40;;;19.30;99.90;;;;;;4183097;28;20053;-90
2023/06/21 05:49:21;;;;;;;21.63;10.32;;;19.30;99.90;;;;;;4190819;28;20049;-88
2023/06/21 05:51:22;;;;;;;28.42;10.80;;;19.30;99.90;;;;;;4182621;28;20045;-88
2023/06/21 05:53:26;;;;;;;21.90;10.60;;;19.30;99.90;;;;;;4183154;28;20433;-89
2023/06/21 05:55:30;;;;;;;20.73;11.15;;;19.40;99.90;;;;;;4184699;28;20044;-90
2023/06/21 05:57:30;;;;;;;20.60;10.80;;;20.20;99.90;;;;;;4167476;28;20049;-89
2023/06/21 05:59:31;;;;;;;22.30;11.32;;;19.60;99.90;;;;;;4183300;28;20055;-89
2023/06/21 06:01:32;;;;;;;23.40;11.00;;;19.50;99.90;;;;;;4183615;28;20102;-89
2023/06/21 06:03:33;;;;;;;16.65;9.63;;;19.50;99.90;;;;;;4186167;28;20509;-89
2023/06/21 06:05:33;;;;;;;21.80;10.70;;;19.50;99.90;;;;;;4183823;28;20471;-88
2023/06/21 06:07:36;;;;;;;19.05;9.85;;;19.50;99.90;;;;;;4169125;28;20129;-88
2023/06/21 06:09:38;;;;;;;25.05;10.27;;;19.50;99.90;;;;;;4166603;28;20405;-89
2023/06/21 06:11:39;;;;;;;22.77;10.00;;;19.50;99.90;;;;;;4185160;28;20048;-88
2023/06/21 06:13:40;;;;;;;18.25;9.05;;;19.60;99.90;;;;;;4167346;28;20064;-88
2023/06/21 06:15:41;;;;;;;18.92;9.50;;;19.60;99.90;;;;;;4183821;28;20059;-90
2023/06/21 06:17:42;;;;;;;16.75;9.45;;;19.70;99.90;;;;;;4184125;28;20053;-90
2023/06/21 06:19:42;;;;;;;20.00;9.05;;;19.60;99.90;;;;;;4183576;28;20041;-90
2023/06/21 06:21:44;;;;;;;14.70;8.85;;;19.70;99.90;;;;;;4186410;28;20032;-92
2023/06/21 06:23:45;;;;;;;21.00;9.60;;;19.70;99.90;;;;;;4168342;28;20414;-92
2023/06/21 06:25:46;;;;;;;22.42;10.43;;;19.70;99.90;;;;;;4172020;28;20040;-91
2023/06/21 06:27:47;;;;;;;19.90;10.13;;;19.80;99.90;;;;;;4186809;28;20523;-88
2023/06/21 06:29:53;;;;;;;17.55;9.38;;;19.70;99.90;;;;;;4169327;28;20048;-89
2023/06/21 06:32:01;;;;;;;19.40;10.18;;;19.20;99.90;;;;;;4174142;28;20045;-92
2023/06/21 06:34:20;;;;;;;21.20;8.63;;;19.80;99.90;;;;;;4194898;28;20065;-91
2023/06/21 06:36:26;;;;;;;15.85;9.43;;;19.80;99.90;;;;;;4196887;28;20051;-91
2023/06/21 06:38:28;;;;;;;14.38;8.88;;;19.90;99.90;;;;;;4207661;28;20047;-91
2023/06/21 06:40:39;;;;;;;19.38;10.50;;;19.10;99.90;;;;;;4174065;28;20485;-90
2023/06/21 06:42:40;;;;;;;21.73;9.85;;;20.00;99.90;;;;;;4203823;28;20116;-89
2023/06/21 06:44:43;;;;;;;18.60;9.38;;;20.10;99.90;;;;;;4201351;28;20053;-91
2023/06/21 06:46:45;;;;;;;21.70;9.70;;;20.20;99.90;;;;;;4172780;28;20038;-93
2023/06/21 06:48:46;;;;;;;17.75;9.52;;;20.20;99.90;;;;;;4191903;28;20052;-91
2023/06/21 06:50:47;;;;;;;15.18;8.93;;;20.30;99.90;;;;;;4163477;28;20061;-91
2023/06/21 06:53:06;;;;;;;20.23;10.20;;;20.30;99.90;;;;;;4181086;28;20108;-92
2023/06/21 06:55:21;;;;;;;15.75;9.57;;;20.30;99.90;;;;;;4171270;28;20140;-93
2023/06/21 06:57:33;;;;;;;15.52;9.65;;;20.40;99.90;;;;;;4180266;28;20045;-91
2023/06/21 06:59:33;;;;;;;17.92;9.25;;;20.50;99.90;;;;;;4182555;28;20089;-92
2023/06/21 07:01:44;;;;;;;15.32;8.85;;;20.40;99.90;;;;;;4178269;28;20045;-93
2023/06/21 07:04:00;;;;;;;17.25;8.73;;;20.50;99.90;;;;;;4179557;28;20445;-94
2023/06/21 07:06:02;;;;;;;15.98;7.95;;;20.60;99.90;;;;;;4172064;28;20046;-94
2023/06/21 07:08:36;;;;;;;14.15;8.40;;;20.70;99.90;;;;;;4168355;28;20076;-93
2023/06/21 07:10:38;;;;;;;14.77;8.60;;;21.00;99.90;;;;;;4125249;28;20109;-94
2023/06/21 07:12:43;;;;;;;13.63;8.18;;;21.10;99.90;;;;;;4157414;28;20050;-94
2023/06/21 07:14:48;;;;;;;13.38;7.50;;;21.10;99.90;;;;;;4145405;28;20046;-93
2023/06/21 07:16:53;;;;;;;13.80;7.68;;;21.10;99.90;;;;;;4176271;28;20073;-92
2023/06/21 07:19:08;;;;;;;14.52;7.93;;;21.20;99.90;;;;;;4176766;28;20045;-93
2023/06/21 07:21:09;;;;;;;10.45;6.55;;;22.30;99.90;;;;;;4170725;28;20045;-92
2023/06/21 07:23:11;;;;;;;10.80;6.80;;;21.40;99.90;;;;;;4180151;28;20059;-92
2023/06/21 07:25:12;;;;;;;13.30;7.28;;;21.40;99.90;;;;;;4186540;28;20041;-94
2023/06/21 07:27:19;;;;;;;18.20;7.80;;;21.40;99.90;;;;;;4150992;28;20057;-92
2023/06/21 07:29:22;;;;;;;10.45;6.18;;;21.40;99.90;;;;;;4185024;28;20514;-92
2023/06/21 07:31:23;;;;;;;12.52;6.32;;;21.40;99.90;;;;;;4187778;28;20041;-93
2023/06/21 07:33:29;;;;;;;11.70;6.40;;;21.50;99.90;;;;;;4187946;28;20041;-94
2023/06/21 07:35:31;;;;;;;12.23;6.32;;;21.60;99.90;;;;;;4189551;28;20049;-93
2023/06/21 07:37:44;;;;;;;10.90;5.40;;;20.80;99.90;;;;;;4186702;28;20041;-93
2023/06/21 07:39:45;;;;;;;10.52;5.28;;;21.90;99.90;;;;;;4186715;28;20036;-94
2023/06/21 07:41:46;;;;;;;9.40;5.97;;;21.90;99.90;;;;;;4180075;28;20064;-93
2023/06/21 07:43:47;;;;;;;9.18;5.32;;;22.00;99.90;;;;;;4185268;28;20154;-91
2023/06/21 07:45:49;;;;;;;11.50;6.10;;;22.10;99.90;;;;;;4213901;28;20036;-89
2023/06/21 07:47:51;;;;;;;11.35;5.70;;;22.10;99.90;;;;;;4202107;28;20408;-89
2023/06/21 07:49:52;;;;;;;9.60;6.15;;;22.10;99.90;;;;;;4185622;28;20056;-89
2023/06/21 07:51:55;;;;;;;11.05;5.30;;;22.30;99.90;;;;;;4202457;28;20047;-88
2023/06/21 07:53:55;;;;;;;8.82;4.97;;;22.30;99.90;;;;;;4186069;28;20484;-89
2023/06/21 07:56:04;;;;;;;9.00;5.28;;;22.30;99.90;;;;;;4169536;28;20045;-89
2023/06/21 07:58:06;;;;;;;8.32;4.68;;;22.40;99.90;;;;;;4207858;28;20469;-88
2023/06/21 08:00:11;;;;;;;7.30;4.80;;;22.50;99.90;;;;;;4185889;28;20033;-88
2023/06/21 08:02:17;;;;;;;9.20;4.63;;;22.50;99.90;;;;;;4202918;28;20045;-88
2023/06/21 08:04:18;;;;;;;10.50;5.03;;;22.60;99.90;;;;;;4194718;28;20044;-88
2023/06/21 08:06:20;;;;;;;8.70;4.65;;;22.60;99.90;;;;;;4202877;28;20126;-88
2023/06/21 08:08:21;;;;;;;7.65;4.72;;;22.70;99.90;;;;;;4185270;28;20797;-88
2023/06/21 08:10:22;;;;;;;10.57;5.40;;;22.80;99.90;;;;;;4185237;28;20040;-86
2023/06/21 08:12:23;;;;;;;9.93;5.35;;;22.90;99.90;;;;;;4201017;28;20047;-86
2023/06/21 08:14:24;;;;;;;9.15;4.95;;;23.00;99.90;;;;;;4203298;28;20070;-87
2023/06/21 08:16:25;;;;;;;9.57;5.53;;;23.10;99.90;;;;;;4177144;28;20052;-87
2023/06/21 08:18:26;;;;;;;8.18;4.95;;;23.10;99.90;;;;;;4203358;28;20058;-87
2023/06/21 08:20:27;;;;;;;12.40;4.07;;;23.10;99.90;;;;;;4218356;28;20085;-88
2023/06/21 08:22:28;;;;;;;11.80;4.32;;;23.10;99.90;;;;;;4202115;28;20451;-88
2023/06/21 08:24:33;;;;;;;9.95;4.55;;;23.30;99.90;;;;;;4182837;28;20149;-88
2023/06/21 08:26:34;;;;;;;7.82;4.32;;;23.30;99.90;;;;;;4209328;28;20044;-88
2023/06/21 08:28:35;;;;;;;7.57;4.50;;;23.30;99.90;;;;;;4199410;28;20049;-88
2023/06/21 08:30:43;;;;;;;9.68;4.78;;;23.40;99.90;;;;;;4183115;28;20140;-88
2023/06/21 08:32:44;;;;;;;10.65;5.38;;;23.50;99.90;;;;;;4199322;28;20040;-88
2023/06/21 08:34:45;;;;;;;9.20;4.82;;;23.50;99.90;;;;;;4187534;28;20071;-88
2023/06/21 08:36:46;;;;;;;8.52;5.07;;;23.60;99.90;;;;;;4196336;28;20131;-87
2023/06/21 08:38:48;;;;;;;10.93;4.95;;;23.60;99.90;;;;;;4188173;28;20070;-87
2023/06/21 08:40:49;;;;;;;9.10;4.30;;;23.60;99.90;;;;;;4185550;28;20036;-88
2023/06/21 08:42:50;;;;;;;12.55;4.22;;;23.70;99.90;;;;;;4203484;28;20476;-88
2023/06/21 08:44:53;;;;;;;7.57;4.60;;;24.00;99.90;;;;;;4201932;28;20068;-88
2023/06/21 08:46:56;;;;;;;8.65;5.00;;;24.10;99.90;;;;;;4170620;28;20060;-88
2023/06/21 08:49:03;;;;;;;11.25;4.72;;;24.20;99.90;;;;;;4188937;28;20072;-87
2023/06/21 08:51:04;;;;;;;7.25;4.07;;;24.20;99.90;;;;;;4218348;28;20044;-87
2023/06/21 08:53:07;;;;;;;8.05;4.47;;;24.20;99.90;;;;;;4195724;28;20428;-86
2023/06/21 08:55:10;;;;;;;6.97;4.20;;;24.20;99.90;;;;;;4206960;28;20063;-88
2023/06/21 08:57:20;;;;;;;8.00;3.63;;;24.20;99.90;;;;;;4193078;28;20059;-87
2023/06/21 08:59:36;;;;;;;6.20;3.72;;;24.30;99.90;;;;;;4173951;28;20421;-87
2023/06/21 09:01:50;;;;;;;10.05;4.53;;;24.50;99.90;;;;;;4187607;28;20120;-87
2023/06/21 09:03:50;;;;;;;9.32;3.83;;;24.70;99.90;;;;;;4191511;28;20135;-87
2023/06/21 09:05:54;;;;;;;9.25;3.85;;;24.60;99.90;;;;;;4207253;28;20044;-87
2023/06/21 09:07:59;;;;;;;6.65;3.45;;;24.70;99.90;;;;;;4212426;28;20085;-87
2023/06/21 09:10:02;;;;;;;13.40;4.13;;;24.70;99.90;;;;;;4214362;28;20083;-86
2023/06/21 09:12:05;;;;;;;6.20;3.70;;;24.60;99.90;;;;;;4190464;28;20909;-87
2023/06/21 09:14:07;;;;;;;7.32;4.05;;;24.60;99.90;;;;;;4188414;28;20064;-88
2023/06/21 09:16:08;;;;;;;8.95;3.75;;;24.80;99.90;;;;;;4193337;28;20064;-88
2023/06/21 09:18:09;;;;;;;9.30;4.32;;;25.00;99.90;;;;;;4190611;28;20132;-88
2023/06/21 09:20:12;;;;;;;7.88;3.20;;;25.20;99.90;;;;;;4178296;28;20543;-87
2023/06/21 09:22:13;;;;;;;9.18;4.15;;;25.50;99.90;;;;;;4176759;28;20044;-87
2023/06/21 09:24:14;;;;;;;6.30;3.55;;;25.50;99.90;;;;;;4202525;28;20048;-88
2023/06/21 09:26:15;;;;;;;6.60;3.30;;;25.50;99.90;;;;;;4183036;28;20049;-86
2023/06/21 09:28:16;;;;;;;7.50;3.25;;;25.60;99.90;;;;;;4196362;28;20066;-86
2023/06/21 09:30:22;;;;;;;6.85;3.45;;;25.70;99.90;;;;;;4200411;28;20190;-88
2023/06/21 09:32:23;;;;;;;5.78;3.15;;;25.90;99.90;;;;;;4200460;28;20055;-88
2023/06/21 09:34:24;;;;;;;7.10;3.58;;;26.00;99.90;;;;;;4165727;28;20049;-87
2023/06/21 09:36:25;;;;;;;6.03;3.25;;;26.00;99.90;;;;;;4182411;28;20053;-88
2023/06/21 09:38:33;;;;;;;5.25;2.65;;;26.10;99.90;;;;;;4168499;28;20111;-88
2023/06/21 09:40:44;;;;;;;7.60;3.05;;;26.30;99.90;;;;;;4196399;28;20072;-87
2023/06/21 09:42:46;;;;;;;4.53;2.83;;;25.90;99.90;;;;;;4182446;28;20497;-88
2023/06/21 09:44:48;;;;;;;6.13;2.75;;;26.40;99.90;;;;;;4200693;28;20072;-86
2023/06/21 09:46:49;;;;;;;5.30;3.45;;;26.30;99.90;;;;;;4186138;28;20084;-86
2023/06/21 09:48:50;;;;;;;6.95;3.70;;;26.50;99.90;;;;;;4198641;28;20540;-86
2023/06/21 09:50:54;;;;;;;6.75;3.13;;;26.50;99.90;;;;;;4166745;28;20045;-86
2023/06/21 09:52:55;;;;;;;4.53;2.80;;;26.40;99.90;;;;;;4177547;28;20053;-86
2023/06/21 09:54:58;;;;;;;5.80;2.67;;;26.50;99.90;;;;;;4199955;28;20111;-87
2023/06/21 09:56:59;;;;;;;6.95;2.63;;;26.40;99.90;;;;;;4182260;28;20056;-86
2023/06/21 09:59:01;;;;;;;4.95;2.70;;;26.60;99.90;;;;;;4182364;28;20045;-86
2023/06/21 10:01:07;;;;;;;11.10;3.85;;;25.90;99.90;;;;;;4199881;28;20044;-85
2023/06/21 10:03:08;;;;;;;4.40;2.83;;;26.60;99.90;;;;;;4182512;28;20075;-87
2023/06/21 10:05:19;;;;;;;5.50;3.30;;;26.60;99.90;;;;;;4182998;28;20095;-86
2023/06/21 10:07:21;;;;;;;5.35;2.67;;;26.80;99.90;;;;;;4181693;28;20124;-88
2023/06/21 10:09:23;;;;;;;6.18;4.03;;;26.80;99.90;;;;;;4200859;28;20049;-88
2023/06/21 10:11:26;;;;;;;4.93;2.70;;;27.00;99.90;;;;;;4182532;28;20105;-88
2023/06/21 10:13:32;;;;;;;6.07;2.67;;;26.90;99.90;;;;;;4167042;28;20172;-87
2023/06/21 10:15:33;;;;;;;6.45;3.00;;;27.10;99.90;;;;;;4182443;28;20041;-87
2023/06/21 10:17:34;;;;;;;5.80;2.90;;;27.10;99.90;;;;;;4199789;28;20457;-88
2023/06/21 10:19:36;;;;;;;8.75;3.05;;;27.20;99.90;;;;;;4182383;28;20072;-87
2023/06/21 10:21:38;;;;;;;7.38;2.97;;;27.40;99.90;;;;;;4198821;28;20049;-87
2023/06/21 10:23:41;;;;;;;5.97;3.17;;;27.70;99.90;;;;;;4213424;28;20058;-87
2023/06/21 10:25:47;;;;;;;4.50;3.10;;;27.70;99.90;;;;;;4212030;28;20049;-87
2023/06/21 10:27:51;;;;;;;5.22;3.10;;;27.60;99.90;;;;;;4186462;28;20052;-87
2023/06/21 10:29:56;;;;;;;5.45;2.95;;;27.40;99.90;;;;;;4199985;28;20048;-86
2023/06/21 10:32:03;;;;;;;5.50;2.88;;;27.30;99.90;;;;;;4181587;28;20045;-87
2023/06/21 10:34:08;;;;;;;5.10;2.70;;;27.20;99.90;;;;;;4176490;28;20438;-87
2023/06/21 10:36:12;;;;;;;4.72;2.38;;;27.10;99.90;;;;;;4216444;28;20435;-86